sensor_id;sensor_type;location;lat;lon;timestamp;temperature;humidity
15262;DHT22;7733;51.554;13.590;2023-11-19T00:00:50;5.30;99.90
15262;DHT22;7733;51.554;13.590;2023-11-19T00:03:16;5.30;99.90
15262;DHT22;7733;51.554;13.590;2023-11-19T00:05:43;5.30;99.90
15262;DHT22;7733;51.554;13.590;2023-11-19T00:08:10;5.30;99.90
15262;DHT22;7733;51.554;13.590;2023-11-19T00:10:35;5.40;99.90
15262;DHT22;7733;51.554;13.590;2023-11-19T00:13:01;5.30;99.90
15262;DHT22;7733;51.554;13.590;2023-11-19T00:15:28;5.30;99.90
15262;DHT22;7733;51.554;13.590;2023-11-19T00:17:54;5.30;99.90
15262;DHT22;7733;51.554;13.590;2023-11-19T00:20:20;5.30;99.90
15262;DHT22;7733;51.554;13.590;2023-11-19T00:22:47;5.30;99.90
15262;DHT22;7733;51.554;13.590;2023-11-19T00:25:16;5.30;99.90
15262;DHT22;7733;51.554;13.590;2023-11-19T00:27:43;5.40;99.90
15262;DHT22;7733;51.554;13.590;2023-11-19T00:30:12;5.30;99.90
15262;DHT22;7733;51.554;13.590;2023-11-19T00:32:39;5.30;99.90
15262;DHT22;7733;51.554;13.590;2023-11-19T00:35:06;5.40;99.90
15262;DHT22;7733;51.554;13.590;2023-11-19T00:37:50;5.40;99.90
15262;DHT22;7733;51.554;13.590;2023-11-19T00:40:16;5.40;99.90
15262;DHT22;7733;51.554;13.590;2023-11-19T00:42:43;5.50;99.90
15262;DHT22;7733;51.554;13.590;2023-11-19T00:45:09;5.50;99.90
15262;DHT22;7733;51.554;13.590;2023-11-19T00:47:35;5.40;99.90
15262;DHT22;7733;51.554;13.590;2023-11-19T00:50:02;5.40;99.90
15262;DHT22;7733;51.554;13.590;2023-11-19T00:52:28;5.40;99.90
15262;DHT22;7733;51.554;13.590;2023-11-19T00:54:54;5.50;99.90
15262;DHT22;7733;51.554;13.590;2023-11-19T00:57:20;5.50;99.90
15262;DHT22;7733;51.554;13.590;2023-11-19T00:59:45;5.40;99.90
15262;DHT22;7733;51.554;13.590;2023-11-19T01:02:12;5.40;99.90
15262;DHT22;7733;51.554;13.590;2023-11-19T01:04:39;5.50;99.90
15262;DHT22;7733;51.554;13.590;2023-11-19T01:07:05;5.40;99.90
15262;DHT22;7733;51.554;13.590;2023-11-19T01:09:32;5.40;99.90
15262;DHT22;7733;51.554;13.590;2023-11-19T01:12:00;5.50;99.90
15262;DHT22;7733;51.554;13.590;2023-11-19T01:14:27;5.40;99.90
15262;DHT22;7733;51.554;13.590;2023-11-19T01:16:54;5.40;99.90
15262;DHT22;7733;51.554;13.590;2023-11-19T01:19:20;5.40;99.90
15262;DHT22;7733;51.554;13.590;2023-11-19T01:21:47;5.30;99.90
15262;DHT22;7733;51.554;13.590;2023-11-19T01:24:16;5.30;99.90
15262;DHT22;7733;51.554;13.590;2023-11-19T01:26:43;5.30;99.90
15262;DHT22;7733;51.554;13.590;2023-11-19T01:29:15;5.40;99.90
15262;DHT22;7733;51.554;13.590;2023-11-19T01:31:42;5.30;99.90
15262;DHT22;7733;51.554;13.590;2023-11-19T01:34:08;5.20;99.90
15262;DHT22;7733;51.554;13.590;2023-11-19T01:36:35;5.10;99.90
15262;DHT22;7733;51.554;13.590;2023-11-19T01:39:01;5.10;99.90
15262;DHT22;7733;51.554;13.590;2023-11-19T01:41:27;5.10;99.90
15262;DHT22;7733;51.554;13.590;2023-11-19T01:43:53;5.20;99.90
15262;DHT22;7733;51.554;13.590;2023-11-19T01:46:19;5.20;99.90
15262;DHT22;7733;51.554;13.590;2023-11-19T01:48:46;5.10;99.90
15262;DHT22;7733;51.554;13.590;2023-11-19T01:51:13;5.10;99.90
15262;DHT22;7733;51.554;13.590;2023-11-19T01:53:42;5.00;99.90
15262;DHT22;7733;51.554;13.590;2023-11-19T01:56:10;5.00;99.90
15262;DHT22;7733;51.554;13.590;2023-11-19T01:58:39;5.00;99.90
15262;DHT22;7733;51.554;13.590;2023-11-19T02:01:07;5.00;99.90
15262;DHT22;7733;51.554;13.590;2023-11-19T02:03:33;4.90;99.90
15262;DHT22;7733;51.554;13.590;2023-11-19T02:06:00;4.90;99.90
15262;DHT22;7733;51.554;13.590;2023-11-19T02:08:26;5.00;99.90
15262;DHT22;7733;51.554;13.590;2023-11-19T02:10:52;5.00;99.90
15262;DHT22;7733;51.554;13.590;2023-11-19T02:13:22;4.90;99.90
15262;DHT22;7733;51.554;13.590;2023-11-19T02:15:48;4.90;99.90
15262;DHT22;7733;51.554;13.590;2023-11-19T02:18:21;4.90;99.90
15262;DHT22;7733;51.554;13.590;2023-11-19T02:20:56;4.80;99.90
15262;DHT22;7733;51.554;13.590;2023-11-19T02:23:25;4.80;99.90
15262;DHT22;7733;51.554;13.590;2023-11-19T02:28:58;4.90;99.90
15262;DHT22;7733;51.554;13.590;2023-11-19T02:31:24;4.90;99.90
15262;DHT22;7733;51.554;13.590;2023-11-19T02:33:50;4.90;99.90
15262;DHT22;7733;51.554;13.590;2023-11-19T02:36:16;5.00;99.90
15262;DHT22;7733;51.554;13.590;2023-11-19T02:38:42;5.00;99.90
15262;DHT22;7733;51.554;13.590;2023-11-19T02:41:08;5.00;99.90
15262;DHT22;7733;51.554;13.590;2023-11-19T02:43:36;5.00;99.90
15262;DHT22;7733;51.554;13.590;2023-11-19T02:46:03;5.10;99.90
15262;DHT22;7733;51.554;13.590;2023-11-19T02:48:33;5.00;99.90
15262;DHT22;7733;51.554;13.590;2023-11-19T02:51:01;4.90;99.90
15262;DHT22;7733;51.554;13.590;2023-11-19T02:53:32;4.90;99.90
15262;DHT22;7733;51.554;13.590;2023-11-19T02:55:58;5.00;99.90
15262;DHT22;7733;51.554;13.590;2023-11-19T02:58:31;5.00;99.90
15262;DHT22;7733;51.554;13.590;2023-11-19T03:00:57;5.00;99.90
15262;DHT22;7733;51.554;13.590;2023-11-19T03:03:25;5.00;99.90
15262;DHT22;7733;51.554;13.590;2023-11-19T03:05:56;5.00;99.90
15262;DHT22;7733;51.554;13.590;2023-11-19T03:08:22;5.00;99.90
15262;DHT22;7733;51.554;13.590;2023-11-19T03:10:48;5.00;99.90
15262;DHT22;7733;51.554;13.590;2023-11-19T03:13:14;4.90;99.90
15262;DHT22;7733;51.554;13.590;2023-11-19T03:15:41;4.90;99.90
15262;DHT22;7733;51.554;13.590;2023-11-19T03:18:07;4.90;99.90
15262;DHT22;7733;51.554;13.590;2023-11-19T03:20:33;4.90;99.90
15262;DHT22;7733;51.554;13.590;2023-11-19T03:22:59;5.00;99.90
15262;DHT22;7733;51.554;13.590;2023-11-19T03:25:27;5.00;99.90
15262;DHT22;7733;51.554;13.590;2023-11-19T03:27:58;5.10;99.90
15262;DHT22;7733;51.554;13.590;2023-11-19T03:30:26;4.90;99.90
15262;DHT22;7733;51.554;13.590;2023-11-19T03:32:52;4.90;99.90
15262;DHT22;7733;51.554;13.590;2023-11-19T03:35:17;5.00;99.90
15262;DHT22;7733;51.554;13.590;2023-11-19T03:37:43;5.00;99.90
15262;DHT22;7733;51.554;13.590;2023-11-19T03:40:10;5.00;99.90
15262;DHT22;7733;51.554;13.590;2023-11-19T03:42:36;5.00;99.90
15262;DHT22;7733;51.554;13.590;2023-11-19T03:45:02;5.00;99.90
15262;DHT22;7733;51.554;13.590;2023-11-19T03:47:29;5.10;99.90
15262;DHT22;7733;51.554;13.590;2023-11-19T03:49:55;5.10;99.90
15262;DHT22;7733;51.554;13.590;2023-11-19T03:52:20;5.10;99.90
15262;DHT22;7733;51.554;13.590;2023-11-19T03:54:46;5.10;99.90
15262;DHT22;7733;51.554;13.590;2023-11-19T03:57:12;5.10;99.90
15262;DHT22;7733;51.554;13.590;2023-11-19T03:59:39;5.10;99.90
15262;DHT22;7733;51.554;13.590;2023-11-19T04:02:05;5.10;99.90
15262;DHT22;7733;51.554;13.590;2023-11-19T04:04:32;5.10;99.90
15262;DHT22;7733;51.554;13.590;2023-11-19T04:06:58;5.20;99.90
15262;DHT22;7733;51.554;13.590;2023-11-19T04:09:26;5.20;99.90
15262;DHT22;7733;51.554;13.590;2023-11-19T04:11:52;5.30;99.90
15262;DHT22;7733;51.554;13.590;2023-11-19T04:14:17;5.30;99.90
15262;DHT22;7733;51.554;13.590;2023-11-19T04:16:44;5.30;99.90
15262;DHT22;7733;51.554;13.590;2023-11-19T04:19:11;5.30;99.90
15262;DHT22;7733;51.554;13.590;2023-11-19T04:21:39;5.30;99.90
15262;DHT22;7733;51.554;13.590;2023-11-19T04:24:06;5.30;99.90
15262;DHT22;7733;51.554;13.590;2023-11-19T04:26:32;5.20;99.90
15262;DHT22;7733;51.554;13.590;2023-11-19T04:28:58;5.30;99.90
15262;DHT22;7733;51.554;13.590;2023-11-19T04:31:31;5.30;99.90
15262;DHT22;7733;51.554;13.590;2023-11-19T04:33:57;5.30;99.90
15262;DHT22;7733;51.554;13.590;2023-11-19T04:36:22;5.30;99.90
15262;DHT22;7733;51.554;13.590;2023-11-19T04:38:50;5.30;99.90
15262;DHT22;7733;51.554;13.590;2023-11-19T04:41:16;5.30;99.90
15262;DHT22;7733;51.554;13.590;2023-11-19T04:43:41;5.20;99.90
15262;DHT22;7733;51.554;13.590;2023-11-19T04:46:09;5.20;99.90
15262;DHT22;7733;51.554;13.590;2023-11-19T04:48:35;5.20;99.90
15262;DHT22;7733;51.554;13.590;2023-11-19T04:51:01;5.20;99.90
15262;DHT22;7733;51.554;13.590;2023-11-19T04:53:26;5.30;99.90
15262;DHT22;7733;51.554;13.590;2023-11-19T04:55:52;5.20;99.90
15262;DHT22;7733;51.554;13.590;2023-11-19T04:58:18;5.20;99.90
15262;DHT22;7733;51.554;13.590;2023-11-19T05:00:44;5.20;99.90
15262;DHT22;7733;51.554;13.590;2023-11-19T05:03:10;5.20;99.90
15262;DHT22;7733;51.554;13.590;2023-11-19T05:05:36;5.20;99.90
15262;DHT22;7733;51.554;13.590;2023-11-19T05:08:02;5.20;99.90
15262;DHT22;7733;51.554;13.590;2023-11-19T05:10:28;5.20;99.90
15262;DHT22;7733;51.554;13.590;2023-11-19T05:12:53;5.20;99.90
15262;DHT22;7733;51.554;13.590;2023-11-19T05:15:21;5.20;99.90
15262;DHT22;7733;51.554;13.590;2023-11-19T05:17:47;5.30;99.90
15262;DHT22;7733;51.554;13.590;2023-11-19T05:20:13;5.20;99.90
15262;DHT22;7733;51.554;13.590;2023-11-19T05:22:42;5.30;99.90
15262;DHT22;7733;51.554;13.590;2023-11-19T05:25:09;5.30;99.90
15262;DHT22;7733;51.554;13.590;2023-11-19T05:27:36;5.30;99.90
15262;DHT22;7733;51.554;13.590;2023-11-19T05:32:33;5.40;99.90
15262;DHT22;7733;51.554;13.590;2023-11-19T05:34:58;5.30;99.90
15262;DHT22;7733;51.554;13.590;2023-11-19T05:37:24;5.40;99.90
15262;DHT22;7733;51.554;13.590;2023-11-19T05:39:50;5.40;99.90
15262;DHT22;7733;51.554;13.590;2023-11-19T05:42:16;5.30;99.90
15262;DHT22;7733;51.554;13.590;2023-11-19T05:44:42;5.40;99.90
15262;DHT22;7733;51.554;13.590;2023-11-19T05:47:08;5.40;99.90
15262;DHT22;7733;51.554;13.590;2023-11-19T05:49:34;5.30;99.90
15262;DHT22;7733;51.554;13.590;2023-11-19T05:51:59;5.30;99.90
15262;DHT22;7733;51.554;13.590;2023-11-19T05:54:27;5.30;99.90
15262;DHT22;7733;51.554;13.590;2023-11-19T05:56:52;5.40;99.90
15262;DHT22;7733;51.554;13.590;2023-11-19T05:59:20;5.30;99.90
15262;DHT22;7733;51.554;13.590;2023-11-19T06:01:48;5.40;99.90
15262;DHT22;7733;51.554;13.590;2023-11-19T06:04:14;5.30;99.90
15262;DHT22;7733;51.554;13.590;2023-11-19T06:06:39;5.40;99.90
15262;DHT22;7733;51.554;13.590;2023-11-19T06:09:05;5.30;99.90
15262;DHT22;7733;51.554;13.590;2023-11-19T06:11:33;5.40;99.90
15262;DHT22;7733;51.554;13.590;2023-11-19T06:14:01;5.40;99.90
15262;DHT22;7733;51.554;13.590;2023-11-19T06:16:28;5.40;99.90
15262;DHT22;7733;51.554;13.590;2023-11-19T06:18:54;5.40;99.90
15262;DHT22;7733;51.554;13.590;2023-11-19T06:21:19;5.40;99.90
15262;DHT22;7733;51.554;13.590;2023-11-19T06:23:45;5.50;99.90
15262;DHT22;7733;51.554;13.590;2023-11-19T06:26:11;5.50;99.90
15262;DHT22;7733;51.554;13.590;2023-11-19T06:28:37;5.50;99.90
15262;DHT22;7733;51.554;13.590;2023-11-19T06:31:03;5.50;99.90
15262;DHT22;7733;51.554;13.590;2023-11-19T06:33:29;5.50;99.90
15262;DHT22;7733;51.554;13.590;2023-11-19T06:35:55;5.50;99.90
15262;DHT22;7733;51.554;13.590;2023-11-19T06:38:20;5.60;99.90
15262;DHT22;7733;51.554;13.590;2023-11-19T06:40:46;5.60;99.90
15262;DHT22;7733;51.554;13.590;2023-11-19T06:43:12;5.70;99.90
15262;DHT22;7733;51.554;13.590;2023-11-19T06:45:39;5.80;99.90
15262;DHT22;7733;51.554;13.590;2023-11-19T06:48:05;5.70;99.90
15262;DHT22;7733;51.554;13.590;2023-11-19T06:50:31;5.70;99.90
15262;DHT22;7733;51.554;13.590;2023-11-19T06:52:58;5.80;99.90
15262;DHT22;7733;51.554;13.590;2023-11-19T06:55:24;5.80;99.90
15262;DHT22;7733;51.554;13.590;2023-11-19T06:57:50;5.80;99.90
15262;DHT22;7733;51.554;13.590;2023-11-19T07:00:15;5.80;99.90
15262;DHT22;7733;51.554;13.590;2023-11-19T07:02:42;5.80;99.90
15262;DHT22;7733;51.554;13.590;2023-11-19T07:05:09;5.90;99.90
15262;DHT22;7733;51.554;13.590;2023-11-19T07:07:37;5.80;99.90
15262;DHT22;7733;51.554;13.590;2023-11-19T07:10:03;5.80;99.90
15262;DHT22;7733;51.554;13.590;2023-11-19T07:12:30;5.80;99.90
15262;DHT22;7733;51.554;13.590;2023-11-19T07:14:56;5.80;99.90
15262;DHT22;7733;51.554;13.590;2023-11-19T07:17:22;5.80;99.90
15262;DHT22;7733;51.554;13.590;2023-11-19T07:19:50;5.80;99.90
15262;DHT22;7733;51.554;13.590;2023-11-19T07:22:16;5.80;99.90
15262;DHT22;7733;51.554;13.590;2023-11-19T07:24:42;5.80;99.90
15262;DHT22;7733;51.554;13.590;2023-11-19T07:27:08;5.80;99.90
15262;DHT22;7733;51.554;13.590;2023-11-19T07:29:34;5.80;99.90
15262;DHT22;7733;51.554;13.590;2023-11-19T07:32:01;5.90;99.90
15262;DHT22;7733;51.554;13.590;2023-11-19T07:34:27;5.90;99.90
15262;DHT22;7733;51.554;13.590;2023-11-19T07:36:54;6.00;99.90
15262;DHT22;7733;51.554;13.590;2023-11-19T07:39:22;6.00;99.90
15262;DHT22;7733;51.554;13.590;2023-11-19T07:41:48;6.10;99.90
15262;DHT22;7733;51.554;13.590;2023-11-19T07:44:15;6.10;99.90
15262;DHT22;7733;51.554;13.590;2023-11-19T07:46:40;6.20;99.90
15262;DHT22;7733;51.554;13.590;2023-11-19T07:49:07;6.20;99.90
15262;DHT22;7733;51.554;13.590;2023-11-19T07:51:35;6.20;99.90
15262;DHT22;7733;51.554;13.590;2023-11-19T07:54:01;6.30;99.90
15262;DHT22;7733;51.554;13.590;2023-11-19T07:56:27;6.30;99.90
15262;DHT22;7733;51.554;13.590;2023-11-19T07:58:53;6.40;99.90
15262;DHT22;7733;51.554;13.590;2023-11-19T08:01:18;6.50;99.90
15262;DHT22;7733;51.554;13.590;2023-11-19T08:03:44;6.60;99.90
15262;DHT22;7733;51.554;13.590;2023-11-19T08:06:10;6.70;99.90
15262;DHT22;7733;51.554;13.590;2023-11-19T08:08:36;6.60;99.90
15262;DHT22;7733;51.554;13.590;2023-11-19T08:11:03;6.70;99.90
15262;DHT22;7733;51.554;13.590;2023-11-19T08:13:30;6.80;99.90
15262;DHT22;7733;51.554;13.590;2023-11-19T08:15:58;6.90;99.90
15262;DHT22;7733;51.554;13.590;2023-11-19T08:18:24;7.00;99.90
15262;DHT22;7733;51.554;13.590;2023-11-19T08:20:50;7.20;99.90
15262;DHT22;7733;51.554;13.590;2023-11-19T08:23:19;7.30;99.90
15262;DHT22;7733;51.554;13.590;2023-11-19T08:25:46;7.40;99.90
15262;DHT22;7733;51.554;13.590;2023-11-19T08:28:11;7.50;99.90
15262;DHT22;7733;51.554;13.590;2023-11-19T08:30:38;7.70;99.90
15262;DHT22;7733;51.554;13.590;2023-11-19T08:33:03;7.80;99.90
15262;DHT22;7733;51.554;13.590;2023-11-19T08:35:31;7.90;99.90
15262;DHT22;7733;51.554;13.590;2023-11-19T08:37:57;8.00;99.90
15262;DHT22;7733;51.554;13.590;2023-11-19T08:40:24;8.00;99.90
15262;DHT22;7733;51.554;13.590;2023-11-19T08:42:51;8.20;99.90
15262;DHT22;7733;51.554;13.590;2023-11-19T08:45:17;8.30;99.90
15262;DHT22;7733;51.554;13.590;2023-11-19T08:47:43;8.40;99.90
15262;DHT22;7733;51.554;13.590;2023-11-19T08:50:11;8.50;99.90
15262;DHT22;7733;51.554;13.590;2023-11-19T08:52:37;8.60;99.90
15262;DHT22;7733;51.554;13.590;2023-11-19T08:55:03;8.70;99.90
15262;DHT22;7733;51.554;13.590;2023-11-19T08:57:31;8.70;99.90
15262;DHT22;7733;51.554;13.590;2023-11-19T08:59:58;8.80;99.90
15262;DHT22;7733;51.554;13.590;2023-11-19T09:02:24;8.90;99.90
15262;DHT22;7733;51.554;13.590;2023-11-19T09:04:50;9.00;99.90
15262;DHT22;7733;51.554;13.590;2023-11-19T09:07:16;9.10;99.90
15262;DHT22;7733;51.554;13.590;2023-11-19T09:09:42;9.30;99.90
15262;DHT22;7733;51.554;13.590;2023-11-19T09:12:07;9.50;99.90
15262;DHT22;7733;51.554;13.590;2023-11-19T09:14:33;9.60;99.90
15262;DHT22;7733;51.554;13.590;2023-11-19T09:16:59;9.70;99.90
15262;DHT22;7733;51.554;13.590;2023-11-19T09:19:25;9.80;99.90
15262;DHT22;7733;51.554;13.590;2023-11-19T09:21:54;9.90;99.90
15262;DHT22;7733;51.554;13.590;2023-11-19T09:24:20;9.90;99.90
15262;DHT22;7733;51.554;13.590;2023-11-19T09:26:46;9.90;99.90
15262;DHT22;7733;51.554;13.590;2023-11-19T09:29:11;10.00;99.90
15262;DHT22;7733;51.554;13.590;2023-11-19T09:31:40;10.00;99.90
15262;DHT22;7733;51.554;13.590;2023-11-19T09:34:06;10.00;99.90
15262;DHT22;7733;51.554;13.590;2023-11-19T09:36:32;10.00;99.90
15262;DHT22;7733;51.554;13.590;2023-11-19T09:38:57;10.00;99.90
15262;DHT22;7733;51.554;13.590;2023-11-19T09:41:26;10.10;99.90
15262;DHT22;7733;51.554;13.590;2023-11-19T09:43:53;10.30;99.90
15262;DHT22;7733;51.554;13.590;2023-11-19T09:46:21;10.40;99.90
15262;DHT22;7733;51.554;13.590;2023-11-19T09:48:52;10.50;99.90
15262;DHT22;7733;51.554;13.590;2023-11-19T09:51:20;10.60;99.90
15262;DHT22;7733;51.554;13.590;2023-11-19T09:53:47;10.60;99.90
15262;DHT22;7733;51.554;13.590;2023-11-19T09:56:14;10.60;99.90
15262;DHT22;7733;51.554;13.590;2023-11-19T09:58:42;10.70;99.90
15262;DHT22;7733;51.554;13.590;2023-11-19T10:01:08;10.80;99.90
15262;DHT22;7733;51.554;13.590;2023-11-19T10:03:38;10.80;99.90
15262;DHT22;7733;51.554;13.590;2023-11-19T10:06:07;10.90;99.90
15262;DHT22;7733;51.554;13.590;2023-11-19T10:08:34;10.90;99.90
15262;DHT22;7733;51.554;13.590;2023-11-19T10:11:02;11.00;99.90
15262;DHT22;7733;51.554;13.590;2023-11-19T10:13:29;11.00;99.90
15262;DHT22;7733;51.554;13.590;2023-11-19T10:15:58;11.10;99.90
15262;DHT22;7733;51.554;13.590;2023-11-19T10:18:27;11.20;99.90
15262;DHT22;7733;51.554;13.590;2023-11-19T10:20:53;11.30;99.90
15262;DHT22;7733;51.554;13.590;2023-11-19T10:23:20;11.30;99.90
15262;DHT22;7733;51.554;13.590;2023-11-19T10:25:46;11.30;99.90
15262;DHT22;7733;51.554;13.590;2023-11-19T10:28:15;11.40;99.90
15262;DHT22;7733;51.554;13.590;2023-11-19T10:30:44;11.50;99.90
15262;DHT22;7733;51.554;13.590;2023-11-19T10:33:13;11.60;99.90
15262;DHT22;7733;51.554;13.590;2023-11-19T10:35:56;11.60;99.90
15262;DHT22;7733;51.554;13.590;2023-11-19T10:38:24;11.70;99.90
15262;DHT22;7733;51.554;13.590;2023-11-19T10:40:52;11.80;99.90
15262;DHT22;7733;51.554;13.590;2023-11-19T10:43:19;11.90;99.90
15262;DHT22;7733;51.554;13.590;2023-11-19T10:45:46;11.90;99.90
15262;DHT22;7733;51.554;13.590;2023-11-19T10:48:12;11.90;99.90
15262;DHT22;7733;51.554;13.590;2023-11-19T10:50:40;11.90;99.90
15262;DHT22;7733;51.554;13.590;2023-11-19T10:53:09;12.00;99.90
15262;DHT22;7733;51.554;13.590;2023-11-19T10:55:38;12.00;99.90
15262;DHT22;7733;51.554;13.590;2023-11-19T10:58:06;11.90;99.90
15262;DHT22;7733;51.554;13.590;2023-11-19T11:00:46;11.80;99.90
15262;DHT22;7733;51.554;13.590;2023-11-19T11:03:25;11.90;99.90
15262;DHT22;7733;51.554;13.590;2023-11-19T11:05:57;12.00;99.90
15262;DHT22;7733;51.554;13.590;2023-11-19T11:08:23;12.00;99.90
15262;DHT22;7733;51.554;13.590;2023-11-19T11:10:53;12.10;99.90
15262;DHT22;7733;51.554;13.590;2023-11-19T11:13:22;12.10;99.90
15262;DHT22;7733;51.554;13.590;2023-11-19T11:15:50;11.90;99.90
15262;DHT22;7733;51.554;13.590;2023-11-19T11:18:17;11.80;99.90
15262;DHT22;7733;51.554;13.590;2023-11-19T11:20:46;11.80;99.90
15262;DHT22;7733;51.554;13.590;2023-11-19T11:29:19;11.60;99.90
15262;DHT22;7733;51.554;13.590;2023-11-19T11:38:14;11.90;99.90
15262;DHT22;7733;51.554;13.590;2023-11-19T11:40:41;12.10;99.90
15262;DHT22;7733;51.554;13.590;2023-11-19T11:49:04;12.00;99.90
15262;DHT22;7733;51.554;13.590;2023-11-19T11:57:06;11.80;99.90
15262;DHT22;7733;51.554;13.590;2023-11-19T12:02:08;11.70;99.90
15262;DHT22;7733;51.554;13.590;2023-11-19T12:04:42;11.60;99.90
15262;DHT22;7733;51.554;13.590;2023-11-19T12:07:13;11.50;99.90
15262;DHT22;7733;51.554;13.590;2023-11-19T12:10:08;11.50;99.90
15262;DHT22;7733;51.554;13.590;2023-11-19T12:12:37;11.50;99.90
15262;DHT22;7733;51.554;13.590;2023-11-19T12:15:09;11.50;99.90
15262;DHT22;7733;51.554;13.590;2023-11-19T12:17:47;11.60;99.90
15262;DHT22;7733;51.554;13.590;2023-11-19T12:20:18;11.60;99.90
15262;DHT22;7733;51.554;13.590;2023-11-19T12:22:47;11.70;99.90
15262;DHT22;7733;51.554;13.590;2023-11-19T12:25:15;11.70;99.90
15262;DHT22;7733;51.554;13.590;2023-11-19T12:27:44;11.70;99.90
15262;DHT22;7733;51.554;13.590;2023-11-19T12:30:24;11.70;99.90
15262;DHT22;7733;51.554;13.590;2023-11-19T12:32:51;11.70;99.90
15262;DHT22;7733;51.554;13.590;2023-11-19T12:35:22;11.70;99.90
15262;DHT22;7733;51.554;13.590;2023-11-19T12:37:50;11.70;99.90
15262;DHT22;7733;51.554;13.590;2023-11-19T12:40:17;11.70;99.90
15262;DHT22;7733;51.554;13.590;2023-11-19T12:42:53;11.70;99.90
15262;DHT22;7733;51.554;13.590;2023-11-19T12:45:20;11.70;99.90
15262;DHT22;7733;51.554;13.590;2023-11-19T12:47:47;11.80;99.90
15262;DHT22;7733;51.554;13.590;2023-11-19T12:50:15;11.90;99.90
15262;DHT22;7733;51.554;13.590;2023-11-19T12:52:58;11.90;99.90
15262;DHT22;7733;51.554;13.590;2023-11-19T12:55:25;12.00;99.90
15262;DHT22;7733;51.554;13.590;2023-11-19T12:57:52;12.10;99.90
15262;DHT22;7733;51.554;13.590;2023-11-19T13:00:22;12.10;99.90
15262;DHT22;7733;51.554;13.590;2023-11-19T13:02:50;12.20;99.90
15262;DHT22;7733;51.554;13.590;2023-11-19T13:05:31;12.20;99.90
15262;DHT22;7733;51.554;13.590;2023-11-19T13:08:08;12.30;99.90
15262;DHT22;7733;51.554;13.590;2023-11-19T13:10:53;12.20;99.90
15262;DHT22;7733;51.554;13.590;2023-11-19T13:13:20;12.20;99.90
15262;DHT22;7733;51.554;13.590;2023-11-19T13:15:45;12.20;99.90
15262;DHT22;7733;51.554;13.590;2023-11-19T13:18:12;12.30;99.90
15262;DHT22;7733;51.554;13.590;2023-11-19T13:20:41;12.30;99.90
15262;DHT22;7733;51.554;13.590;2023-11-19T13:23:07;12.30;99.90
15262;DHT22;7733;51.554;13.590;2023-11-19T13:25:33;12.30;99.90
15262;DHT22;7733;51.554;13.590;2023-11-19T13:27:59;12.30;99.90
15262;DHT22;7733;51.554;13.590;2023-11-19T13:30:26;12.30;99.90
15262;DHT22;7733;51.554;13.590;2023-11-19T13:32:52;12.20;99.90
15262;DHT22;7733;51.554;13.590;2023-11-19T13:35:21;12.20;99.90
15262;DHT22;7733;51.554;13.590;2023-11-19T13:37:50;12.10;99.90
15262;DHT22;7733;51.554;13.590;2023-11-19T13:40:17;12.10;99.90
15262;DHT22;7733;51.554;13.590;2023-11-19T13:42:43;12.10;99.90
15262;DHT22;7733;51.554;13.590;2023-11-19T13:45:13;12.00;99.90
15262;DHT22;7733;51.554;13.590;2023-11-19T13:47:41;12.10;99.90
15262;DHT22;7733;51.554;13.590;2023-11-19T13:50:12;12.10;99.90
15262;DHT22;7733;51.554;13.590;2023-11-19T13:52:39;12.00;99.90
15262;DHT22;7733;51.554;13.590;2023-11-19T13:55:08;12.10;99.90
15262;DHT22;7733;51.554;13.590;2023-11-19T13:57:39;12.10;99.90
15262;DHT22;7733;51.554;13.590;2023-11-19T14:00:08;12.10;99.90
15262;DHT22;7733;51.554;13.590;2023-11-19T14:02:41;12.10;99.90
15262;DHT22;7733;51.554;13.590;2023-11-19T14:05:08;12.10;99.90
15262;DHT22;7733;51.554;13.590;2023-11-19T14:07:37;12.20;99.90
15262;DHT22;7733;51.554;13.590;2023-11-19T14:10:04;12.10;99.90
15262;DHT22;7733;51.554;13.590;2023-11-19T14:12:34;12.10;99.90
15262;DHT22;7733;51.554;13.590;2023-11-19T14:15:02;12.10;99.90
15262;DHT22;7733;51.554;13.590;2023-11-19T14:17:28;12.10;99.90
15262;DHT22;7733;51.554;13.590;2023-11-19T14:19:54;12.10;99.90
15262;DHT22;7733;51.554;13.590;2023-11-19T14:22:20;12.10;99.90
15262;DHT22;7733;51.554;13.590;2023-11-19T14:24:45;12.20;99.90
15262;DHT22;7733;51.554;13.590;2023-11-19T14:27:11;12.20;99.90
15262;DHT22;7733;51.554;13.590;2023-11-19T14:29:37;12.20;99.90
15262;DHT22;7733;51.554;13.590;2023-11-19T14:32:04;12.20;99.90
15262;DHT22;7733;51.554;13.590;2023-11-19T14:34:30;12.20;99.90
15262;DHT22;7733;51.554;13.590;2023-11-19T14:36:56;12.20;99.90
15262;DHT22;7733;51.554;13.590;2023-11-19T14:39:22;12.10;99.90
15262;DHT22;7733;51.554;13.590;2023-11-19T14:41:48;12.20;99.90
15262;DHT22;7733;51.554;13.590;2023-11-19T14:44:15;12.20;99.90
15262;DHT22;7733;51.554;13.590;2023-11-19T14:46:41;12.20;99.90
15262;DHT22;7733;51.554;13.590;2023-11-19T14:49:07;12.20;99.90
15262;DHT22;7733;51.554;13.590;2023-11-19T14:51:36;12.20;99.90
15262;DHT22;7733;51.554;13.590;2023-11-19T14:54:04;12.10;99.90
15262;DHT22;7733;51.554;13.590;2023-11-19T14:56:30;12.10;99.90
15262;DHT22;7733;51.554;13.590;2023-11-19T14:58:56;12.10;99.90
15262;DHT22;7733;51.554;13.590;2023-11-19T15:01:21;12.10;99.90
15262;DHT22;7733;51.554;13.590;2023-11-19T15:03:47;12.10;99.90
15262;DHT22;7733;51.554;13.590;2023-11-19T15:06:13;12.10;99.90
15262;DHT22;7733;51.554;13.590;2023-11-19T15:08:39;12.10;99.90
15262;DHT22;7733;51.554;13.590;2023-11-19T15:11:05;12.00;99.90
15262;DHT22;7733;51.554;13.590;2023-11-19T15:13:32;12.00;99.90
15262;DHT22;7733;51.554;13.590;2023-11-19T15:15:58;12.00;99.90
15262;DHT22;7733;51.554;13.590;2023-11-19T15:18:24;12.00;99.90
15262;DHT22;7733;51.554;13.590;2023-11-19T15:20:50;12.00;99.90
15262;DHT22;7733;51.554;13.590;2023-11-19T15:23:16;12.00;99.90
15262;DHT22;7733;51.554;13.590;2023-11-19T15:25:42;12.00;99.90
15262;DHT22;7733;51.554;13.590;2023-11-19T15:28:08;12.00;99.90
15262;DHT22;7733;51.554;13.590;2023-11-19T15:30:35;12.00;99.90
15262;DHT22;7733;51.554;13.590;2023-11-19T15:33:01;11.90;99.90
15262;DHT22;7733;51.554;13.590;2023-11-19T15:35:26;11.90;99.90
15262;DHT22;7733;51.554;13.590;2023-11-19T15:37:52;11.90;99.90
15262;DHT22;7733;51.554;13.590;2023-11-19T15:40:18;11.90;99.90
15262;DHT22;7733;51.554;13.590;2023-11-19T15:42:45;11.90;99.90
15262;DHT22;7733;51.554;13.590;2023-11-19T15:45:12;11.90;99.90
15262;DHT22;7733;51.554;13.590;2023-11-19T15:47:38;11.80;99.90
15262;DHT22;7733;51.554;13.590;2023-11-19T15:50:05;11.80;99.90
15262;DHT22;7733;51.554;13.590;2023-11-19T15:52:32;11.80;99.90
15262;DHT22;7733;51.554;13.590;2023-11-19T15:54:58;11.80;99.90
15262;DHT22;7733;51.554;13.590;2023-11-19T15:57:24;11.80;99.90
15262;DHT22;7733;51.554;13.590;2023-11-19T15:59:50;11.80;99.90
15262;DHT22;7733;51.554;13.590;2023-11-19T16:02:16;11.90;99.90
15262;DHT22;7733;51.554;13.590;2023-11-19T16:04:42;11.80;99.90
15262;DHT22;7733;51.554;13.590;2023-11-19T16:07:15;11.80;99.90
15262;DHT22;7733;51.554;13.590;2023-11-19T16:09:41;11.80;99.90
15262;DHT22;7733;51.554;13.590;2023-11-19T16:12:08;11.80;99.90